HBSGO LSGG-LSGT
Flight info
| Callsign | HBSGO |
|---|---|
| Flight time | 0h 26m |
| Altitude | 4500 |
| Route | LAUSANNE BULLE |
| Aircraft | DA40/L-SDBGRY/S |
Departure
| Time | 2026-05-07 19:24 |
|---|---|
| Airport | Geneva International Airport (LSGG) |
Arrival
| Time | 2026-05-07 19:50 |
|---|---|
| Airport | La Gruyère Airfield (LSGT) |
| Time | Latitude | Longitude | Altitude | Speed | Heading |
|---|---|---|---|---|---|
| 2026-05-07 18:58 | 46.23404 | 6.09754 | 1394 ft | 0 kts | 49° |
| 2026-05-07 19:13 | 46.23405 | 6.09754 | 1394 ft | 0 kts | 48° |
| 2026-05-07 19:13 | 46.23407 | 6.09759 | 1394 ft | 3 kts | 59° |
| 2026-05-07 19:13 | 46.23404 | 6.09779 | 1401 ft | 6 kts | 130° |
| 2026-05-07 19:13 | 46.23378 | 6.09789 | 1394 ft | 5 kts | 223° |
| 2026-05-07 19:14 | 46.23334 | 6.09763 | 1394 ft | 7 kts | 160° |
| 2026-05-07 19:14 | 46.23322 | 6.09811 | 1394 ft | 7 kts | 50° |
| 2026-05-07 19:14 | 46.23364 | 6.09872 | 1400 ft | 10 kts | 46° |
| 2026-05-07 19:14 | 46.23399 | 6.09933 | 1397 ft | 4 kts | 106° |
| 2026-05-07 19:15 | 46.23359 | 6.09995 | 1397 ft | 11 kts | 135° |
| 2026-05-07 19:15 | 46.23341 | 6.10018 | 1401 ft | 0 kts | 105° |
| 2026-05-07 19:21 | 46.23340 | 6.10049 | 1395 ft | 8 kts | 83° |
| 2026-05-07 19:22 | 46.23317 | 6.10109 | 1394 ft | 11 kts | 134° |
| 2026-05-07 19:22 | 46.23301 | 6.10155 | 1395 ft | 0 kts | 55° |
| 2026-05-07 19:22 | 46.23302 | 6.10157 | 1395 ft | 0 kts | 43° |
| 2026-05-07 19:23 | 46.23337 | 6.10206 | 1389 ft | 28 kts | 45° |
| 2026-05-07 19:23 | 46.23599 | 6.10593 | 1402 ft | 72 kts | 45° |
| 2026-05-07 19:23 | 46.23922 | 6.11118 | 1648 ft | 70 kts | 49° |
| 2026-05-07 19:24 | 46.24238 | 6.11657 | 1842 ft | 73 kts | 47° |
| 2026-05-07 19:24 | 46.24636 | 6.12233 | 1955 ft | 84 kts | 42° |
| 2026-05-07 19:24 | 46.24919 | 6.12982 | 2144 ft | 88 kts | 74° |
| 2026-05-07 19:24 | 46.25046 | 6.13853 | 2314 ft | 90 kts | 72° |
| 2026-05-07 19:25 | 46.25180 | 6.14717 | 2554 ft | 86 kts | 64° |
| 2026-05-07 19:25 | 46.25464 | 6.15477 | 2770 ft | 86 kts | 59° |
| 2026-05-07 19:25 | 46.25760 | 6.16229 | 2989 ft | 86 kts | 59° |
| 2026-05-07 19:25 | 46.26045 | 6.16989 | 3198 ft | 86 kts | 59° |
| 2026-05-07 19:26 | 46.26339 | 6.17788 | 3303 ft | 98 kts | 60° |
| 2026-05-07 19:26 | 46.26694 | 6.18708 | 3310 ft | 110 kts | 60° |
| 2026-05-07 19:26 | 46.27085 | 6.19707 | 3307 ft | 117 kts | 59° |
| 2026-05-07 19:26 | 46.27488 | 6.20755 | 3308 ft | 121 kts | 60° |
| 2026-05-07 19:27 | 46.27908 | 6.21815 | 3308 ft | 123 kts | 58° |
| 2026-05-07 19:27 | 46.28342 | 6.22883 | 3306 ft | 124 kts | 58° |
| 2026-05-07 19:27 | 46.28781 | 6.23955 | 3307 ft | 124 kts | 59° |
| 2026-05-07 19:27 | 46.29226 | 6.25032 | 3309 ft | 126 kts | 58° |
| 2026-05-07 19:28 | 46.29669 | 6.26120 | 3302 ft | 125 kts | 59° |
| 2026-05-07 19:28 | 46.30123 | 6.27188 | 3305 ft | 125 kts | 57° |
| 2026-05-07 19:28 | 46.30598 | 6.28244 | 3306 ft | 126 kts | 56° |
| 2026-05-07 19:28 | 46.31067 | 6.29311 | 3302 ft | 126 kts | 57° |
| 2026-05-07 19:29 | 46.31536 | 6.30373 | 3309 ft | 125 kts | 57° |
| 2026-05-07 19:29 | 46.32003 | 6.31434 | 3306 ft | 125 kts | 57° |
| 2026-05-07 19:29 | 46.32466 | 6.32494 | 3312 ft | 124 kts | 57° |
| 2026-05-07 19:29 | 46.32931 | 6.33554 | 3311 ft | 125 kts | 57° |
| 2026-05-07 19:30 | 46.33403 | 6.34611 | 3309 ft | 124 kts | 57° |
| 2026-05-07 19:30 | 46.33863 | 6.35650 | 3311 ft | 124 kts | 57° |
| 2026-05-07 19:30 | 46.34333 | 6.36721 | 3310 ft | 125 kts | 57° |
| 2026-05-07 19:30 | 46.34797 | 6.37777 | 3309 ft | 124 kts | 57° |
| 2026-05-07 19:31 | 46.35257 | 6.38830 | 3308 ft | 123 kts | 57° |
| 2026-05-07 19:31 | 46.35716 | 6.39879 | 3313 ft | 124 kts | 57° |
| 2026-05-07 19:31 | 46.36174 | 6.40931 | 3309 ft | 123 kts | 57° |
| 2026-05-07 19:31 | 46.36628 | 6.41973 | 3310 ft | 123 kts | 57° |
| 2026-05-07 19:32 | 46.37082 | 6.43004 | 3304 ft | 123 kts | 57° |
| 2026-05-07 19:32 | 46.37552 | 6.44059 | 3304 ft | 126 kts | 57° |
| 2026-05-07 19:32 | 46.38035 | 6.45149 | 3304 ft | 128 kts | 57° |
| 2026-05-07 19:32 | 46.38507 | 6.46215 | 3306 ft | 127 kts | 57° |
| 2026-05-07 19:33 | 46.38985 | 6.47311 | 3319 ft | 127 kts | 57° |
| 2026-05-07 19:33 | 46.39438 | 6.48381 | 3323 ft | 126 kts | 57° |
| 2026-05-07 19:33 | 46.39864 | 6.49510 | 3322 ft | 126 kts | 63° |
| 2026-05-07 19:33 | 46.40206 | 6.50637 | 3447 ft | 117 kts | 65° |
| 2026-05-07 19:34 | 46.40499 | 6.51609 | 3798 ft | 96 kts | 64° |
| 2026-05-07 19:34 | 46.40745 | 6.52456 | 4070 ft | 89 kts | 64° |
| 2026-05-07 19:34 | 46.40994 | 6.53279 | 4292 ft | 89 kts | 64° |
| 2026-05-07 19:34 | 46.41249 | 6.54107 | 4512 ft | 90 kts | 64° |
| 2026-05-07 19:35 | 46.41509 | 6.54930 | 4738 ft | 90 kts | 64° |
| 2026-05-07 19:35 | 46.41772 | 6.55757 | 4942 ft | 92 kts | 64° |
| 2026-05-07 19:35 | 46.42044 | 6.56591 | 5160 ft | 90 kts | 64° |
| 2026-05-07 19:35 | 46.42319 | 6.57419 | 5318 ft | 97 kts | 64° |
| 2026-05-07 19:36 | 46.42629 | 6.58379 | 5324 ft | 112 kts | 68° |
| 2026-05-07 19:36 | 46.42888 | 6.59485 | 5325 ft | 120 kts | 73° |
| 2026-05-07 19:36 | 46.43143 | 6.60667 | 5328 ft | 125 kts | 72° |
| 2026-05-07 19:36 | 46.43407 | 6.61886 | 5326 ft | 127 kts | 73° |
| 2026-05-07 19:37 | 46.43673 | 6.63113 | 5325 ft | 128 kts | 73° |
| 2026-05-07 19:37 | 46.43939 | 6.64350 | 5328 ft | 129 kts | 73° |
| 2026-05-07 19:37 | 46.44210 | 6.65597 | 5328 ft | 130 kts | 72° |
| 2026-05-07 19:37 | 46.44483 | 6.66854 | 5324 ft | 130 kts | 73° |
| 2026-05-07 19:38 | 46.44755 | 6.68104 | 5323 ft | 129 kts | 73° |
| 2026-05-07 19:38 | 46.45029 | 6.69339 | 5324 ft | 128 kts | 72° |
| 2026-05-07 19:38 | 46.45300 | 6.70575 | 5325 ft | 129 kts | 73° |
| 2026-05-07 19:38 | 46.45570 | 6.71810 | 5332 ft | 129 kts | 72° |
| 2026-05-07 19:39 | 46.45838 | 6.73047 | 5331 ft | 128 kts | 72° |
| 2026-05-07 19:39 | 46.46106 | 6.74284 | 5333 ft | 129 kts | 73° |
| 2026-05-07 19:39 | 46.46374 | 6.75522 | 5331 ft | 128 kts | 73° |
| 2026-05-07 19:39 | 46.46642 | 6.76756 | 5331 ft | 128 kts | 73° |
| 2026-05-07 19:40 | 46.46912 | 6.77990 | 5330 ft | 129 kts | 72° |
| 2026-05-07 19:40 | 46.47182 | 6.79232 | 5328 ft | 129 kts | 73° |
| 2026-05-07 19:40 | 46.47446 | 6.80449 | 5329 ft | 128 kts | 73° |
| 2026-05-07 19:40 | 46.47712 | 6.81672 | 5328 ft | 127 kts | 73° |
| 2026-05-07 19:41 | 46.47981 | 6.82900 | 5332 ft | 128 kts | 73° |
| 2026-05-07 19:41 | 46.48251 | 6.84141 | 5334 ft | 130 kts | 73° |
| 2026-05-07 19:41 | 46.48783 | 6.85184 | 5324 ft | 132 kts | 38° |
| 2026-05-07 19:41 | 46.49555 | 6.85898 | 5296 ft | 132 kts | 32° |
| 2026-05-07 19:42 | 46.50318 | 6.86612 | 5320 ft | 131 kts | 33° |
| 2026-05-07 19:42 | 46.51086 | 6.87329 | 5322 ft | 132 kts | 33° |
| 2026-05-07 19:42 | 46.51861 | 6.88053 | 5322 ft | 133 kts | 33° |
| 2026-05-07 19:42 | 46.52638 | 6.88780 | 5322 ft | 133 kts | 33° |
| 2026-05-07 19:43 | 46.53417 | 6.89505 | 5321 ft | 133 kts | 33° |
| 2026-05-07 19:43 | 46.54196 | 6.90226 | 5321 ft | 133 kts | 33° |
| 2026-05-07 19:43 | 46.54976 | 6.90949 | 5322 ft | 133 kts | 33° |
| 2026-05-07 19:43 | 46.55756 | 6.91672 | 5321 ft | 133 kts | 33° |
| 2026-05-07 19:44 | 46.56536 | 6.92397 | 5322 ft | 133 kts | 33° |
| 2026-05-07 19:44 | 46.57317 | 6.93120 | 5321 ft | 133 kts | 33° |
| 2026-05-07 19:44 | 46.58098 | 6.93842 | 5321 ft | 133 kts | 33° |
| 2026-05-07 19:44 | 46.58884 | 6.94553 | 5313 ft | 133 kts | 32° |
| 2026-05-07 19:45 | 46.59566 | 6.95328 | 5367 ft | 131 kts | 22° |
| 2026-05-07 19:45 | 46.60404 | 6.95908 | 5327 ft | 132 kts | 25° |
| 2026-05-07 19:45 | 46.60910 | 6.96871 | 5438 ft | 124 kts | 77° |
| 2026-05-07 19:45 | 46.60916 | 6.98208 | 5060 ft | 139 kts | 98° |
| 2026-05-07 19:46 | 46.60748 | 6.99595 | 4779 ft | 139 kts | 102° |
| 2026-05-07 19:46 | 46.60538 | 7.00942 | 4579 ft | 135 kts | 104° |
| 2026-05-07 19:46 | 46.60309 | 7.02237 | 4451 ft | 129 kts | 104° |
| 2026-05-07 19:46 | 46.60084 | 7.03475 | 4332 ft | 126 kts | 106° |
| 2026-05-07 19:47 | 46.59797 | 7.04680 | 4178 ft | 126 kts | 111° |
| 2026-05-07 19:47 | 46.59480 | 7.05876 | 3994 ft | 127 kts | 108° |
| 2026-05-07 19:47 | 46.59310 | 7.07113 | 3880 ft | 122 kts | 94° |
| 2026-05-07 19:47 | 46.59299 | 7.08321 | 3783 ft | 118 kts | 89° |
| 2026-05-07 19:48 | 46.59605 | 7.09292 | 3811 ft | 108 kts | 26° |
| 2026-05-07 19:48 | 46.60280 | 7.08931 | 3633 ft | 120 kts | 297° |
| 2026-05-07 19:48 | 46.60139 | 7.07775 | 3435 ft | 127 kts | 226° |
| 2026-05-07 19:48 | 46.59352 | 7.07397 | 3321 ft | 121 kts | 175° |
| 2026-05-07 19:49 | 46.58546 | 7.07417 | 3319 ft | 112 kts | 179° |
| 2026-05-07 19:49 | 46.57757 | 7.07451 | 3224 ft | 113 kts | 173° |
| 2026-05-07 19:49 | 46.57163 | 7.08048 | 3171 ft | 108 kts | 111° |
| 2026-05-07 19:49 | 46.57380 | 7.08860 | 3052 ft | 92 kts | 24° |
| 2026-05-07 19:50 | 46.57925 | 7.09212 | 2684 ft | 82 kts | 26° |
| 2026-05-07 19:50 | 46.58434 | 7.09496 | 2458 ft | 80 kts | 4° |
| 2026-05-07 19:50 | 46.58978 | 7.09507 | 2298 ft | 74 kts | 355° |
| 2026-05-07 19:50 | 46.59361 | 7.09452 | 2280 ft | 30 kts | 356° |
| 2026-05-07 19:51 | 46.59447 | 7.09428 | 2281 ft | 7 kts | 353° |
| 2026-05-07 19:51 | 46.59471 | 7.09404 | 2281 ft | 7 kts | 185° |
| 2026-05-07 19:51 | 46.59352 | 7.09442 | 2280 ft | 28 kts | 172° |
| 2026-05-07 19:51 | 46.59155 | 7.09482 | 2274 ft | 25 kts | 172° |
| 2026-05-07 19:52 | 46.59115 | 7.09491 | 2274 ft | 0 kts | 171° |
| 2026-05-07 19:53 | 46.59112 | 7.09494 | 2274 ft | 2 kts | 107° |
| 2026-05-07 19:53 | 46.59149 | 7.09491 | 2274 ft | 13 kts | 349° |
| 2026-05-07 19:53 | 46.59295 | 7.09459 | 2279 ft | 29 kts | 351° |
| 2026-05-07 19:54 | 46.59468 | 7.09433 | 2281 ft | 16 kts | 8° |
| 2026-05-07 19:54 | 46.59522 | 7.09421 | 2282 ft | 5 kts | 357° |
| 2026-05-07 19:54 | 46.59558 | 7.09387 | 2284 ft | 5 kts | 265° |
| 2026-05-07 19:54 | 46.59530 | 7.09356 | 2288 ft | 7 kts | 207° |
| 2026-05-07 19:55 | 46.59503 | 7.09352 | 2288 ft | 2 kts | 86° |
| 2026-05-07 19:55 | 46.59503 | 7.09353 | 2288 ft | 0 kts | 83° |